Terminal Aerodrome Forecast
Issued by NWS Pittsburgh, PA

Current Version | Previous Version | Graphics & Text | Print | Product List | Glossary On
Versions: 1 2 3 4 5 6 7 8 9 10 11 12 13 14 15 16 17 18 19 20 21 22 23 24 25 26 27 28 29 30 31
000
FTUS41 KPBZ 182300
TAFPIT
TAF
KPIT 182338Z 1900/2006 30013G20KT P6SM VCSH BKN025
     FM190300 31008KT P6SM BKN025
     FM191600 28010KT P6SM BKN040
     FM192300 23003KT P6SM SCT040=

USA.gov is the U.S. government's official web portal to all federal, state and local government web resources and services.